Amherst Junction, Wisconsin
Current Conditions -  °F | °C
As of 4:15 PM on Monday 26 Jan 2015 (Local Time) from KSTE Reporting Station
Haze Haze  
Wind Chill: -7°   Ceiling: 900
Heat Index: -7°   Visibility: 5mi
Dew Point: -8°   Wind: 3mph
Humidity: 93%   Direction: 150°SSE
Pressure: 29.8"   Gusts: NA
Location:  44.47°N, 89.31°W
Report Text: KSTE 262215Z AUTO 15003KT 5SM BR OVC009 M06/M07 A2980 RMK AO2 T10651075
Loading
Personal Weather Stations






























Interactive Weather Map New forecast layout! Learn more

10-Day Weather Forecast

Advertisements
Track Severe Weather on mobile